x

Ilm3 - 27 Miles Se Of Wrightsville Beach, Nc (41037) Weather Station

5:08am - Wed 22nd Feb 2017 All times are EST. -5 hours from GMT.

  • Wind
    11mph, 16mph gusts
  • Sea Temp 64°f
  • Air Temp 66°f
  • Sea Pressure 1015.9mb
  • Ilm3 - 27 Miles Se Of Wrightsville Beach, Nc
  • Ilm3 - 27 Miles Se Of Wrightsville Beach, Nc

More Historic Weather Station data

Upgrade to MSW Pro to gain access to the past 30 days of data for over 8000 Wavebouys and Weather Stations around the globe.

Join Pro

Comparision Forecast

View Surf forecast
   
Wed 02/22 5:08am 11 16 mph 1015.9mb 64f 66f
4:08am 11 16 mph 1015.8mb 64f 66f
3:08am 11 18 mph 1016.2mb 65f 66f
2:08am 13 18 mph 1016.4mb 65f 66f
1:08am 11 18 mph 1017.2mb 65f 66f
12:08am 11 16 mph 1017.7mb 65f 66f
Tue 02/21 11:08pm 13 18 mph 1018.3mb 65f 66f
10:08pm 13 20 mph 1018.9mb 64f 66f
9:08pm 16 25 mph 1019.5mb 64f 65f
8:08pm 16 20 mph 1019.4mb 64f 66f
7:08pm 11 20 mph 1019.5mb 64f 65f
6:08pm 11 16 mph 1019.5mb 64f 64f
5:08pm 13 16 mph 1019.8mb 64f 63f
4:08pm 13 20 mph 1020.2mb 64f 62f
3:08pm 16 20 mph 1019.9mb 64f 62f
2:08pm 16 22 mph 1020.4mb 63f 61f
1:08pm 16 20 mph 1021.1mb 63f 60f
12:08pm 16 22 mph 1022mb 63f 60f
11:08am 16 22 mph 1023.6mb 63f 59f
10:08am 16 25 mph 1023.2mb 63f 59f
9:08am 16 22 mph 1022.9mb 63f 59f
8:08am 16 22 mph 1023mb 63f 59f
7:08am 13 20 mph 1022.5mb 63f 60f
6:08am 16 20 mph 1022.7mb 63f 60f
5:08am 16 22 mph 1022.3mb 64f 60f
4:08am 18 25 mph 1021.9mb 64f 60f
3:08am 18 25 mph 1021.7mb 64f 62f
2:08am 16 25 mph 1021.9mb 64f 63f
1:08am 18 25 mph 1022.2mb 62f 62f
12:08am 16 22 mph 1022.3mb 62f 62f
Mon 02/20 11:08pm 13 20 mph 1022mb 62f 63f
10:08pm 13 22 mph 1021.6mb 62f 63f
9:08pm 16 22 mph 1021.7mb 62f 62f
8:08pm 16 20 mph 1021.5mb 62f 62f
7:08pm 13 20 mph 1021.7mb 62f 62f
6:08pm 16 22 mph 1021.2mb 62f 62f
5:08pm 16 22 mph 1020.8mb 62f 63f
4:08pm 13 20 mph 1020.3mb 62f 63f
3:08pm 13 20 mph 1020.9mb 62f 62f
2:08pm 13 22 mph 1021.1mb 62f 62f
1:08pm 18 25 mph 1020.3mb 62f 62f
12:08pm 16 22 mph 1021.2mb 62f 61f
11:08am 13 20 mph 1022.1mb 61f 61f
10:08am 16 20 mph 1022.1mb 61f 59f
9:08am 16 20 mph 1021.3mb 61f 59f
8:08am 16 22 mph 1020.3mb 61f 59f
7:08am 16 22 mph 1019.5mb 61f 58f
6:08am 13 18 mph 1019.3mb 61f 58f
5:08am 13 18 mph 1018.8mb 61f 58f
4:08am 11 13 mph 1018mb 61f 58f
3:08am 9 13 mph 1017.2mb 61f 59f
2:08am 7 11 mph 1016.7mb 61f 59f
1:08am 7 11 mph 1016.7mb 60f 60f
Sun 02/19 11:08pm 7 11 mph 1016.8mb 59f 60f
10:08pm 7 9 mph 1016.4mb 59f 60f
9:08pm 4 9 mph 1016.1mb 59f 60f
8:08pm 4 7 mph 1015.4mb 59f 59f
7:08pm 4 7 mph 1014.9mb 59f 59f
6:08pm 7 9 mph 1014.5mb 59f 59f
5:08pm 9 13 mph 1013.5mb 60f 60f
4:08pm 9 13 mph 1012.9mb 61f 60f
3:08pm 13 16 mph 1012.6mb 61f 60f
2:08pm 7 11 mph 1013.3mb 61f 60f
1:08pm 7 9 mph 1013.1mb 61f 59f
12:08pm 11 16 mph 1014.1mb 61f 58f
11:08am 16 22 mph 1014.4mb 61f 57f
10:08am 18 25 mph 1014.4mb 60f 57f
9:08am 20 27 mph 1014mb 60f 58f
8:08am 9 13 mph 1013.8mb 60f 58f
7:08am 7 11 mph 1013.5mb 60f 58f
6:08am 11 16 mph 1012.7mb 61f 58f
5:08am 11 13 mph 1011.4mb 61f 58f
4:08am 9 13 mph 1012mb 62f 59f